Håll muspekaren över respektive flygplats för att se aktuella METAR och TAF.
Informationen kommer från Aviation Weather Center och vi tar inget ansvar för ev fel.

Redigera flygplats

 

Masterfil

ändringar
METAR:
TAF:

I=ILS ((min200ft)/550m), L=LOC(min250ft/800m), V=VOR(min300ft/800m), N=NDB(min300ft/800m), G=GPS, C=CIRC(min500ft/1600m),
Takeoff 500m, rwy lgt 250m, ctr lgt 200m, multi RVR 150m   RWY


SWEDEN

AirportMETARTAF
Arvidsjaur
I12-550/200
I30-550/200
ESNX 301320Z AUTO 04004KT 350V100 9999 SCT037/// 06/00 Q1007 TAF ESNX 301230Z 3013/3020 16004KT 9999 BKN020
Borlänge
I32-550/200
R14-800/250
ESSD 301320Z 20004KT 9999 SCT041 BKN088 10/05 Q1009 TAF ESSD 301130Z 3012/3016 17003KT CAVOK
Bromma
I12-550/200
I30-750/200
ESSB 301320Z 22003KT 180V270 9999 FEW024 11/05 Q1010 TAF ESSB 301130Z 3012/3021 29005KT CAVOK
Gällivare
I30-550/223
R12-1300/250
ESNG 301320Z 07004KT 050V120 9999 OVC022 01/// Q1008 TAF ESNG 301130Z 3012/3021 04005KT 9999 BKN020
Hagfors
I18-550/200
R36-1500/360
ESOH 301320Z AUTO 18008KT 9999 FEW030/// BKN051/// 11/06 Q1008
Halmstad
I19-550/200
R01-1100/330
ESMT 301350Z 17008KT 130V200 9999 BKN069 13/09 Q1008 TAF ESMT 301108Z 3012/3019 17012KT 9999 BKN020 TEMPO 3012/3015 SHRA BKN012 SCT020CB TEMPO 3015/3019 SCT020TCU
Hemavan
I33-1500/609
L15-5000/1567
ESUT 301320Z AUTO 14006KT 080V180 9999 OVC031/// 05/M01 Q1006
Jönköping
I19-550/200
I01-550/200
ESGJ 301350Z AUTO 13005KT 110V170 9999 ////// 12/08 Q1008 TAF ESGJ 301130Z 3012/3014 16007KT 9999 SCT025 PROB40 3013/3014 SCT025TCU
Kalmar
I16-550/200
R34-1400/300
ESMQ 301350Z 16007KT 100V190 9999 FEW007 BKN023 BKN051 13/10 Q1010 TAF ESMQ 301130Z 3012/3019 19009KT CAVOK PROB40 3012/3019 SCT030CB
Karlsborg
06/24
ESIA 301320Z AUTO 18006KT 150V220 9999 SCT049/// BKN220/// 12/06 Q1009 TAF ESIA 300630Z 3006/3010 13005KT 9999 FEW015
Karlstad
I03-550/200
I21-550/200
ESOK 301320Z 16009KT 9999 SCT041 11/04 Q1009 TAF ESOK 301130Z 3012/3015 15003KT 9999 SCT025
Kiruna
I21-550/200
R03-900/341
ESNQ 301320Z 07004KT 010V120 9999 BKN018 01/M03 Q1007 TAF ESNQ 301130Z 3012/3020 07005KT 9999 BKN020
Kramfors
I35-550/200
L17-1500/605
ESNK 301320Z 00000KT 9999 OVC043 09/02 Q1008 TAF ESNK 301130Z 3012/3017 VRB03KT 9999 BKN040
Kristianstad
I19-550/200
R01-1300/255
ESMK 301350Z 19007KT 9999 SCT022 BKN076 13/11 Q1009 TAF ESMK 301108Z 3012/3017 18008KT 9999 BKN025 TEMPO 3012/3017 SCT020TCU
Landvetter
I03-550/200
I21-550/200
ESGG 301350Z 14009KT 9999 -RA SCT025 BKN043 BKN059 11/08 Q1007 RERA TAF ESGG 301130Z 3012/0112 16008KT CAVOK TEMPO 3012/0101 SHRA BKN014CB PROB40 3022/0106 3000 BR
Linköping ESCF 301320Z AUTO 14003KT 110V190 9999 BKN032/// OVC110/// 12/07 Q1010 TAF ESCF 300830Z 3009/3013 19005KT 0500 FG VV002 BECMG 3009/3010 9999 NSW SCT010 RMK MIL
Linköping
I11-550/200
I29-750/200
ESSL 301320Z 17009KT 140V200 CAVOK 13/05 Q1010 TAF ESSL 301130Z 3012/3016 16008KT 9999 FEW025
Ljungbyhed
29/11
ESTL 301350Z 17008KT 130V190 9999 FEW034 BKN069 14/10 Q1009 TAF ESTL 301108Z 3012/3015 16008KT 9999 BKN025 TEMPO 3012/3015 SCT020TCU
Luleå
I14-550/200
I32-550/200
ESPA 301320Z 07003KT 030V100 9999 BKN024 06/02 Q1009 TAF ESPA 301130Z 3012/3021 02004KT 9999 SCT025
Lycksele
I14-550/216
L32-1500/551
ESNL 301320Z AUTO 11006KT 9999 BKN032/// OVC042/// 07/01 Q1008
Mora
I16-550/200
R34-800/254
ESKM 301320Z AUTO VRB03KT 9999 FEW020/// OVC088/// 10/06 Q1008
Norrköping
I09-750/200
I27-550/200
ESSP 301320Z 16006KT 130V190 9999 SCT035 13/05 Q1010 TAF ESSP 301130Z 3012/3014 21003KT 9999 SCT030
Pajala
I11-550/200
R29-800/250
ESUP 301320Z AUTO VRB03KT 9999 OVC030/// 03/M01 Q1009
Ronneby
I19-550/200
I01-550/200
ESDF 301320Z 18008KT 160V220 9999 -SHRA SCT036TCU 13/10 Q1010 TAF ESDF 301130Z 3012/3019 18007KT 9999 SCT030 TEMPO 3012/3019 SHRA BKN020CB
Skavsta
I26-550/200
L08-1400/386
ESKN 301320Z 17008KT 9999 SCT042 12/05 Q1010 TAF ESKN 301130Z 3012/0112 23005KT 9999 FEW020 PROB40 3020/0102 SCT030CB BECMG 0109/0111 17010KT
Skellefteå
I28-550/200
R10-750/250
ESNS 301320Z 30003KT 5000 BR SCT007 BKN016 05/05 Q1009 TAF AMD ESNS 301348Z 3013/3018 VRB03KT 9999 SCT014 BKN025 TEMPO 3013/3017 4000 RA BKN014
Stockholm-Arlanda
I01LR-550/200
I19LR-550/200
L08-1400/392
I26-550/200
ESSA 301320Z 21005KT CAVOK 11/04 Q1010 NOSIG TAF ESSA 301130Z 3012/0112 26005KT CAVOK PROB40 3022/0112 SCT030CB BECMG 0110/0112 16010KT
Sturup
I17-550/200
I35-550/200
ESMS 301350Z 19012KT 9999 SCT020 OVC066 13/09 Q1009 TAF ESMS 301109Z 3012/0112 18012KT 9999 BKN020 TEMPO 3012/3022 SCT020TCU BECMG 0110/0112 RA BKN010
Sundsvall
I16-1200/200
I34-550/200
ESNN 301320Z 14004KT 9999 SCT044 BKN053 09/04 Q1009 TAF ESNN 301130Z 3012/3019 12004KT 9999 FEW030
Sveg
I09-750/200
R27-1300/250
ESND 301320Z AUTO 11004KT 070V140 9999 OVC066/// 08/04 Q1007
Sälen
I15-550/200
I33-550/200
ESKS 301320Z AUTO 23006KT 9000 RA FEW014/// SCT020/// OVC023/// 06/05 Q1007
Säve
R19-1500/610
01
ESGP 301350Z 13007KT 9999 VCSH FEW017 SCT042CB BKN062 12/09 Q1007 TAF ESGP 301130Z 3012/3021 16009KT CAVOK TEMPO 3012/3021 SHRA BKN025CB
Såtenäs
I19-550/200
I01-550/200
ESIB 301320Z 14007KT 9999 FEW029 SCT040 13/07 Q1008 TAF COR ESIB 301200Z 3012/3015 15005KT CAVOK PROB20 3012/3015 -SHRA BKN025TCU RMK MIL
Torsby
L16-1500/480
L34-1500/416
ESST 301320Z AUTO 15008KT 9999 SCT051/// BKN098/// 11/06 Q1008
Trollhättan
I33-550/200
R15-900/284
ESGT 301350Z 13006KT 100V160 9999 VCSH FEW036 SCT057 14/06 Q1007 TAF ESGT 301130Z 3012/3016 16008KT CAVOK PROB40 3015/3016 SHRA BKN030CB
Umeå
I14-550/200
I32-750/200
ESNU 301320Z 05004KT 9999 BKN023 OVC031 06/04 Q1009 TAF ESNU 301130Z 3012/3021 03005KT 9999 BKN025
Vilhelmina
I28-550/200
R10-1000/308
ESNV 301320Z VRB01KT 9999 OVC042 06/01 Q1007
Visby
I21-550/200
R03-800/250
ESSV 301320Z 28003G15KT 200V360 9999 FEW034 12/07 Q1011 TAF ESSV 301130Z 3012/3020 26005KT CAVOK
Västerås
I19-550/200
R01-1400/343
ESOW 301320Z 18007KT 9999 SCT025 12/05 Q1010 TAF ESOW 301130Z 3012/3017 22005KT 9999 FEW020
Växjö
I19-550/200
R01-800/250
ESMX 301350Z 16007KT 110V180 9999 -DZ FEW002 SCT026 12/09 Q1009 RESHRA TAF ESMX 301130Z 3012/3020 17007KT 9999 SCT025 PROB40 3012/3018 SHRA BKN025CB
Ängelholm
I14-550/200
R32-1000/310
ESTA 301350Z 16012KT 9999 SCT024 13/09 Q1008 TAF ESTA 301224Z 3013/3021 15010KT 9999 BKN020 TEMPO 3013/3015 SHRA BKN012 SCT020TCU TEMPO 3015/3018 SCT020TCU
Örebro
I01-550/200
I19-550/200
ESOE 301320Z 17006KT 130V200 9999 SCT030 13/06 Q1009 TAF ESOE 301130Z 3012/3021 18003KT 9999 FEW020 PROB40 3019/3021 SHRA SCT030CB
Örnsköldsvik
I12-550/200
L30-800/254
ESNO 301320Z 13003KT 100V190 9999 SCT024 BKN120 08/04 Q1008 TAF ESNO 301130Z 3012/3019 34005KT 9999 BKN025
Östersund
I12-550/200
R30-1500/420
ESNZ 301320Z 13009KT 9999 FEW026 09/03 Q1006 TAF ESNZ 301130Z 3012/3019 12006KT 9999 SCT020

NORDIC

AirportMETARTAF
Alta
I11-1500/389
ENAT 301320Z 15009KT CAVOK 08/M03 Q1009 RMK WIND 700FT 18012KT TAF ENAT 301100Z 3012/3021 16008KT 9999 FEW040
Andoya
L14-800/324
R32-750/250
V21-1400/343
ENAN 301350Z 16007KT CAVOK 10/04 Q1007 TAF ENAN 3012/0112 17009KT CAVOK
Aro
I07-1500/425
L25-1500/1180
ENML 301320Z 08005KT CAVOK 15/07 Q1000 TAF ENML 301100Z 3012/3021 08008KT CAVOK
Banak
I34-600/277
L16-750/305
ENNA 301320Z 17011KT 9999 FEW015 03/00 Q1010 RMK WIND 1800FT 19006KT TAF ENNA 3012/0112 18008KT 9999 FEW003 SCT011
Bardufors
I28-1300/440
L10-1500/1067
ENDU 301350Z 11007KT CAVOK 09/M01 Q1007 NOSIG RMK WIND 1100FT 08004KT WIND 2200FT 11007KT TAF ENDU 3012/0112 12005KT CAVOK
Batsfjord
L21-1500/461
R03-1500/630
ENBS 301320Z 13006KT 9999 OVC076 05/M00 Q1010 TAF ENBS 301100Z 3012/3021 15005KT CAVOK TEMPO 3018/3021 BKN012
Bergen
I17-550/200
I35-750/210
ENBR 301350Z 16020G31KT 9999 FEW025 14/03 Q0999 NOSIG RMK WIND 1200FT 14031G44KT TAF ENBR 3012/0112 14018KT 9999 FEW030 SCT050 TEMPO 3012/3024 16022G32KT TEMPO 0100/0106 RA TEMPO 0106/0112 SHRA BKN012CB
Berlevag
L24-1500/591
R06-1500/634
ENBV 301320Z 12008KT CAVOK 06/M01 Q1011 TAF ENBV 301100Z 3012/3021 15008KT CAVOK
Billund
I09-550/200
I27-550/200
EKBI 301350Z AUTO 22010KT 190V250 9999 FEW032/// 14/08 Q1006 TAF EKBI 301105Z 3012/0112 19008KT 9999 BKN020 TEMPO 3012/3015 BKN009 SCT020TCU TEMPO 3015/3024 SCT020TCU BECMG 0104/0106 17015G25KT 3000 RA BKN004 TEMPO 0106/0108 17012KT 6000 NSW SCT004 BKN010 BECMG 0108/0110 28010KT 9999 NSW SCT030 TEMPO 0110/0112 SHRA SCT020CB
Björneborg
I30-550/200
R12-1100/263
EFPO 301350Z AUTO 30008KT 9999 SCT029 BKN045 08/05 Q1008 TAF EFPO 301135Z 3012/3018 22003KT 9999 BKN019 TEMPO 3012/3018 FEW020TCU
Bodö
I07-600/268
I25-800/340
ENBO 301350Z 09013KT CAVOK 11/00 Q1006 NOSIG TAF ENBO 3012/0112 09015KT CAVOK TEMPO 3012/3018 09005KT TEMPO 0109/0112 17008KT
Bornholm
I11-750/200
I29-550/200
EKRN 301350Z AUTO 18011KT 9999 NCD 15/07 Q1011 TAF EKRN 301109Z 3012/3021 19010KT 9999 SCT025
Bronoysund
R03-1100/316
21
ENBN 301320Z 13006KT 090V170 CAVOK 13/04 Q1004 TAF ENBN 301100Z 3012/3021 14009KT 9999 FEW050
Enontekis
I21-550/200
R03-1000/250
EFET 301350Z AUTO 36004KT 9999 BKN025 02/M03 Q1008
Esbjerg
I08-550/200
I26-550/200
EKEB 301350Z AUTO 17009KT 140V200 9999 BKN025/// BKN054/// 14/09 Q1006 TAF EKEB 301112Z 3012/3021 19010KT 9999 BKN020 TEMPO 3012/3015 BKN012 TEMPO 3018/3021 18015G25KT SCT020TCU
Evenes
I17-800/340
R35-1500/779
ENEV 301320Z 13005KT 090V150 CAVOK 10/M00 Q1007 RMK WIND 1400FT 14005KT TAF ENEV 3012/0112 12008KT CAVOK
Faroar
L12-2500/556
I30-1500/435
EKVG 301350Z AUTO 13024G35KT 8000 -RA OVC007/// 11/10 Q0961 RERA RMK OVC005/// WIND SKEID 13048G58KT TAF EKVG 301121Z 3012/3021 14030G48KT 7000 RADZ OVC008 TEMPO 3012/3016 1500 RADZ OVC003 BECMG 3014/3015 23030G45KT BECMG 3016/3018 23020G30KT 9999 BKN012
Floro
L07-1500/413
R25-2500/588
ENFL 301320Z 16019G30KT CAVOK 14/03 Q0998 TAF ENFL 301100Z 3012/3021 15015KT 9999 FEW030 PROB40 TEMPO 3012/3015 17015G25KT
Förde
L07-1500/471
L25-1500/1015
ENBL 301320Z 17008KT 9999 FEW045 14/01 Q0999
Halli
I26-750/200
R08-1000/368
EFHA 301350Z AUTO 24005KT 200V280 9999 SHRA BKN012 OVC028 //////CB 07/06 Q1007 TAF AMD EFHA 301345Z 3013/3015 20003KT 9999 -SHRA FEW012 BKN025 SCT035CB TEMPO 3013/3015 7000 SHRA BKN012 BKN025
Hammerfest
L04-1500/798
L22-1500/929
ENHF 301320Z 21004KT 190V250 CAVOK 08/M01 Q1008 RMK WIND 1254FT 16010KT TAF ENHF 301100Z 3012/3021 16008KT CAVOK
Haugesund
I13-750/200
R31-800/231
ENHD 301350Z 16019KT 9999 BKN042 13/05 Q1000 TAF ENHD 301100Z 3012/3020 15018KT 9999 FEW020 SCT040 TEMPO 3012/3020 16025G35KT
Haukasen
I24-1500/1017
L06-5000/1274
ENSG 301320Z 08004KT CAVOK 12/01 Q1001 RMK WIND 3806FT 14019KT
Helsinki
I04/I15/I22/all 550/200
R33-1000/319
EFHK 301350Z 25006KT 9999 FEW022 FEW044CB 10/06 Q1008 TEMPO FEW044 TAF EFHK 301135Z 3012/0112 28004KT 9999 FEW014 BKN040 TEMPO 3012/3016 FEW040CB PROB30 TEMPO 3021/0112 FEW030CB BECMG 0106/0108 18010KT
Honningsvåg
08/26 1500/1184
ENHV 301320Z AUTO 16006KT 120V190 9999 NCD 07/M01 Q1010 TAF ENHV 301100Z 3012/3021 17005KT CAVOK
Hovden
L06-1600/3187
ENOV 301320Z VRB07G18KT CAVOK 16/M00 Q0998 RMK WIND RWY24 VRB06G19KT WIND 2090FT 15019G31KT TAF ENOV 301100Z 3012/3021 VRB03KT 9999 FEW050
Hoybuktmoen
I23-550/250
R05-1500/740
ENKR 301320Z 11005KT CAVOK 03/M02 Q1010 RMK WIND 731FT 10007KT TAF ENKR 301100Z 3012/3021 14008KT 9999 SCT040 TEMPO 3017/3021 BKN012
Ivalo
I22-550/200
R04-800/340
EFIV 301350Z AUTO 03004KT CAVOK 03/01 Q1009 TAF EFIV 301134Z 3012/3018 VRB02KT 9999 BKN030 PROB40 3012/3018 BKN012
Joensuu
I28-550/200
R10-1000/306
EFJO 301350Z AUTO VRB02KT 9999 SCT016 BKN042 07/04 Q1008
Jyvaskyla
I30-750/200
R12-1200/401
EFJY 301350Z AUTO 13004KT 9999 -SHRA BKN005 OVC038 //////CB 07/06 Q1007 TAF AMD EFJY 301342Z 3013/0112 14004KT 9999 OVC005 TEMPO 3013/3015 6000 SCT007 BKN015 FEW020CB BECMG 3015/3017 BKN025 TEMPO 3017/3021 BKN007 FEW020CB BECMG 3021/3023 2000 BR BKN008 BECMG 0100/0102 1200 BKN004 TEMPO 0102/0109 3000 BECMG 0109/0111 FEW008 BKN020
Kajaani
I07-550/200
R25-1100/335
EFKI 301350Z AUTO 17004KT 9999 OVC021 04/02 Q1008
Karup
I09R-550/200
I27L-550/200
EKKA 301350Z AUTO 22011KT 9999 SCT022/// 13/08 Q1005 TAF EKKA 301126Z 3012/0112 16008KT 9999 BKN015 TEMPO 3012/3018 4000 -SHRA BKN010 FEW020TCU TEMPO 3018/3024 17012G22KT 4000 -SHRA BKN008 SCT020TCU BECMG 0101/0103 17015KT 7000 -RA TEMPO 0103/0109 17018G30KT 3000 RA BKN006 BECMG 0109/0111 22010KT 9999 NSW TEMPO 0111/0112 SHRA SCT020CB
Kastrup
I04L-550/214
I04R-550/200
I12-550/207
I22LR-550/200
I30-550/206
EKCH 301350Z AUTO 18015KT 9999 SCT016/// BKN076/// 14/10 Q1009 TEMPO SCT020TCU TAF EKCH 301111Z 3012/0112 18013KT 9999 BKN020 TEMPO 3012/3021 SCT020TCU BECMG 0110/0112 RA BKN010
Kemi
I18-750/200
R36-750/256
EFKE 301350Z AUTO 05004KT 010V090 9999 BKN021 OVC038 05/01 Q1009
Kittila
I34-550/214
L16-1500/477
EFKT 301350Z AUTO VRB02KT 9999 OVC017 03/M00 Q1008 TAF EFKT 301134Z 3012/3018 07003KT 9999 FEW008 BKN015 PROB40 3012/3018 BKN012
Kristiansand
I03-550/200
I21-550/200
ENCN 301350Z 10005KT 070V170 9999 SCT019 SCT025TCU 12/09 Q1005 TAF ENCN 301100Z 3012/3021 09007KT 9999 BKN025 BECMG 3015/3017 17010KT TEMPO 3012/3021 SHRA BKN012 FEW025TCU
Kristiansund
I07-800/252
R25-1300/369
ENKB 301320Z 10005KT 050V130 CAVOK 15/05 Q1000 RMK WIND 745FT 11006KT TAF ENKB 301100Z 3012/3021 12008KT CAVOK
Kruunupyy
I19-550/200
R01-1000/250
EFKK 301350Z AUTO 34004KT 300V010 9999 OVC021 07/02 Q1008 TAF EFKK 301134Z 3012/3021 02004KT 9999 BKN020
Kuopio
I33-550/200
R15-900/273
EFKU 301350Z AUTO VRB01KT 9999 OVC012 06/04 Q1008 TAF EFKU 301134Z 3012/0112 08006KT 9999 OVC010 TEMPO 3012/3017 7000 RA SCT010 OVC015 PROB30 3019/0102 7000 -DZRA BKN008 TEMPO 0102/0106 BKN008 BECMG 0108/0110 BKN015
Kuusamo
I12-550/200
R30-750/251
EFKS 301350Z AUTO VRB02KT 9999 -SHRA OVC016 02/01 Q1008
Lappeenranta
I06-550/200
R24-900/264
EFLP 301350Z AUTO 29005KT 9999 -SHRA OVC015 08/07 Q1008 TAF EFLP 301134Z 3012/3021 32004KT 9999 OVC005 TEMPO 3012/3015 6000 -SHRA SCT007 BKN012 SCT025CB BECMG 3015/3017 BKN012 PROB30 3019/3021 4500 BR
Leknes
R02-1500/616
R20-1300/339
ENLK 301320Z 16005KT CAVOK 11/03 Q1006
Mariehamn
I21-550/200
R03-1300/279
EFMA 301350Z 28004KT 230V320 9999 FEW029 BKN038 10/05 Q1010 TAF EFMA 301135Z 3012/3021 31005KT 9999 BKN020 TEMPO 3012/3013 FEW045CB
Mehamn
L17-1500/528
R35-1500/935
ENMH 301320Z 11003KT CAVOK 08/M02 Q1010
Mikkeli
I11-550/204
R29-1400/298
EFMI 301350Z AUTO VRB02KT 9999 OVC014 07/05 Q1008
Moirana
L14&32-1500/1200
ENRA 301320Z 08009KT 9999 FEW050 10/M00 Q1006 TAF ENRA 301100Z 3012/3021 09006KT 9999 FEW045
Namsos
R25-1500/1032
R07-1500/783
ENNM 301320Z 08010KT CAVOK 13/05 Q1004
Notodden
L12-5000/1379
ENNO 301320Z 14006KT 9999 BKN045 14/05 Q1006 TAF ENNO 300800Z 3009/3017 VRB03KT 9999 FEW005 BKN080 BECMG 3011/3013 15010KT
Odense
I24-550/200
R06-1500/402
EKOD 301350Z 22010KT 180V250 9999 FEW023 SCT055 14/10 Q1007 TAF EKOD 301155Z 3012/3016 20010KT 9999 BKN020 TEMPO 3012/3016 BKN012 SCT020TCU
Orland
R15-750/271
I33-750/206
ENOL 301350Z 12010KT 080V150 CAVOK 15/06 Q1001 NOSIG ENOL 3012/0112 13018KT CAVOK TEMPO 3018/0112 14022G32KT
Oslo
I01L-750/200
I01R-550/200
I19LR-550/200
ENGM 301350Z 22003KT 180V280 9999 SCT040 11/05 Q1006 NOSIG TAF ENGM 3012/0112 16005KT 9999 FEW010 BKN040 BECMG 3020/3022 BKN012 TEMPO 3022/0104 2000 -RADZ BR BKN004 TEMPO 0104/0112 14015KT 4000 RA BKN008
Roskilde
I11-550/200
I21-550/200
R03-1500/503
R29-1500/412
EKRK 301350Z AUTO 20010KT 9999 FEW024/// BKN052/// 13/09 Q1008 TAF EKRK 301121Z 3012/3021 18010KT 9999 BKN020 TEMPO 3012/3018 SCT020TCU
Rovaniemi
I21-550/200
R03-750/254
EFRO 301350Z AUTO 07004KT 040V100 9999 SCT021 BKN048 03/01 Q1008 TAF EFRO 301134Z 3012/0112 05003KT 9999 FEW008 BKN015 TEMPO 3012/3018 BKN008 PROB30 3021/0106 1500 BCFG BKN003 TEMPO 0106/0110 BKN004
Rygge
30/12
ENRY 301350Z 21010KT 9999 SCT035 13/05 Q1007 TAF ENRY 3012/0112 21005KT 9999 BKN030 BECMG 3018/3020 15010KT TEMPO 3020/0106 4000 SHRA BR BKN010 FEW015TCU TEMPO 0106/0112 14015G25KT RA BKN012
Ryum
R04-1400/299
R22-1500/493
ENRM 301320Z AUTO 11008KT 060V160 9999 NCD 13/05 Q1003 TAF ENRM 300500Z 3006/3013 13008KT 9999 FEW020 BKN030 PROB30 TEMPO 3006/3011 SHRA BKN020CB
Röros
I31-1500/517
ENRO 301350Z AUTO 16010KT 130V190 9999 OVC036 09/01 Q1004 TAF ENRO 301100Z 3012/3019 VRB03KT 9999 SCT030 BECMG 3012/3014 15010KT
Savonlinna
I12-550/200
R30-1300/250
EFSA 301350Z AUTO 02005KT 9999 -DZ BKN006 OVC034 07/07 Q1008 TAF EFSA 301134Z 3012/3018 04005KT 9999 OVC005 TEMPO 3012/3015 7000 -SHRA BKN010 SCT025CB BECMG 3015/3017 BKN012
Seinajoki
I32-550/200
R14-800/250
EFSI 301350Z AUTO 33003KT 9999 OVC005 06/06 Q1008
Skagen
L08-1500/370
L26-1500/377
ENSK 301320Z 14003KT CAVOK 11/02 Q1006 TAF ENSK 301100Z 3012/3021 15010KT CAVOK BECMG 3014/3016 03008KT
Skrydstrup
I10L-550/200
I28R-550/200
EKSP 301350Z 23010KT 9999 FEW028 SCT051 14/09 Q1006 TAF EKSP 301110Z 3012/0112 23010KT 9999 SCT030 TEMPO 3012/3015 6000 -SHRA BKN012 FEW020TCU TEMPO 3020/3102 18012G22KT 6000 -SHRA FEW020TCU TEMPO 0102/0106 18012G28KT 4000 -RA BKN008 TEMPO 0106/0111 2500 BR -SHRA BKN004 SCT020CB
Sonderborg
I32-550/200
R14-750/200
EKSB 301350Z 22009KT 190V270 9999 BKN030 15/09 Q1007 TAF EKSB 301155Z 3012/3021 21010KT 9999 BKN025 TEMPO 3012/3018 SCT020TCU
Sorkjosen
14
32
ENSR 301320Z VRB03KT CAVOK 07/M01 Q1008 RMK WIND RWY32 VRB03KT WIND 1118FT 15010KT TAF ENSR 301100Z 3012/3020 15008KT CAVOK
Sorstokken
L14-1300/257
R32-1300/275
ENSO 301320Z 16018G32KT 140V210 9999 SCT045 13/03 Q1000 TAF ENSO 301100Z 3012/3020 17015G25KT 9999 FEW040 SCT050
Stavanger
I11-1200/200
I18-750/200
I36-800/219
R29-1100/325
ENZV 301350Z 15016KT 9999 BKN040 14/05 Q1001 TAF ENZV 3012/0112 15015KT 9999 FEW030 SCT040 TEMPO 3012/0103 15020G30KT TEMPO 3021/0102 RA TEMPO 0102/0107 4000 SHRA BKN010 BKN030CB BECMG 0103/0106 15005KT BECMG 0106/0109 30010KT
Stokka
L20-1500/717
R02-1500/407
ENST 301320Z VRB03KT CAVOK 13/02 Q1005 RMK WIND 300FT 11006KT
Svalbard
I10-1500/450
L28-1600/431
ENSB 301350Z 27005KT 0900 FG VV001 04/04 Q1012 TEMPO 0500 FG VV003 RMK WIND 1400FT 00000KT TAF AMD ENSB 3012/0112 11006KT 9999 FEW001 BKN004 TEMPO 3012/3015 25010KT 0500 FG VV001 BECMG 3014/3017 FEW001 BKN040
Svolvaer
L01-1500/901
ENSH 301150Z 07008KT CAVOK 10/02 Q1007 RMK WIND 150FT 07012KT TAF ENSH 300500Z 3006/3012 06009KT CAVOK
Tammerfors
I24-550/200
R06-750/251
EFTP 301350Z AUTO 22003KT 190V250 9999 FEW007 BKN027 08/06 Q1008 TAF AMD EFTP 301221Z 3012/0112 VRB02KT 9999 SCT007 BKN025 TEMPO 3012/3014 5000 SHRA SCT007 SCT025CB PROB30 0102/0109 2000 -RADZ BKN004 TEMPO 0109/0112 SCT030CB
Torp
I18-550/200
I36-600/256
ENTO 301350Z 16007KT 9999 SCT023 11/06 Q1007 NOSIG TAF ENTO 3012/0112 16010KT 9999 FEW015TCU BKN020 TEMPO 3018/0105 4000 SHRA BR BKN008 FEW015TCU TEMPO 0105/0112 17015G28KT RA BKN010
Tromsö
I36-900/345
I18-650/294
ENTC 301350Z 22006KT CAVOK 09/01 Q1007 NOSIG RMK WIND 2600FT VRB01KT TAF ENTC 3012/0112 24006KT CAVOK
Trondheim
I09-750/210
I27800/237
ENVA 301350Z 15009KT 110V170 CAVOK 16/05 Q1002 NOSIG RMK WIND 670FT 16014KT TAF ENVA 3012/0112 12005KT CAVOK TEMPO 3018/0103 16015G25KT BECMG 0103/0106 16018G28KT
Uleåborg
I12-550/200
R30-750/267
EFOU 301350Z AUTO VRB02KT 9999 -SHRA BKN015 OVC024 04/02 Q1009 TAF EFOU 301135Z 3012/0112 09003KT 9999 SCT010 BKN030 TEMPO 3012/3018 BKN010
Utti
I25-550/200
R07-800/255
EFUT 301350Z AUTO 19003KT 9999 FEW014 BKN047 09/06 Q1008 TAF AMD EFUT 300911Z 3009/3012 03007KT 9999 -SHRA BKN006 SCT030CB TEMPO 3009/3011 2500 +DZ BKN004 BECMG 3011/3012 SCT005 BKN012
Vadso
L07-1400/343
R25-1500/363
ENVD 301320Z 09008KT CAVOK 03/M01 Q1011 TAF ENVD 301100Z 3012/3021 11008KT 9999 FEW040 TEMPO 3018/3021 BKN008
Vamdrup
R01-1500/431
R19-1400/387
EKVD 301350Z 23014KT 9999 SCT028 16/08 Q1006 TAF EKVD 301155Z 3012/3016 21012KT 9999 BKN020 TEMPO 3012/3016 BKN012 SCT020TCU
Vardö
R15-1500/498
R33-1300/270
ENSS 301320Z 12012KT CAVOK 06/M00 Q1011 RMK WIND 0500FT 10014KT
Vasa
I16-550/200
R34-800/255
EFVA 301350Z AUTO VRB01KT 9999 BKN030 07/04 Q1008 TAF EFVA 301138Z 3012/0112 VRB02KT 9999 BKN025 PROB30 3012/3015 BKN008 PROB30 3021/0106 2000 BCFG BKN003
Åbo
I26-550/200
R08-900/268
EFTU 301350Z AUTO 33004KT 300V010 9999 -SHRA BKN024 09/06 Q1009 TAF EFTU 301135Z 3012/0112 29005KT 9999 SCT018 TEMPO 3012/3020 SCT020TCU TEMPO 0102/0109 SCT025CB PROB30 TEMPO 0102/0107 4500 SHRA BECMG 0107/0109 18010KT TEMPO 0109/0112 SCT030CB
Ålborg
I08L-750/200
I26R-550/200
EKYT 301350Z AUTO 15008KT 9999 FEW018/// BKN046/// OVC074/// 13/10 Q1005 TAF AMD EKYT 301221Z 3012/0112 17010KT 9999 BKN025 TEMPO 3012/3021 4000 -SHRA BKN012 SCT020TCU TEMPO 3021/3024 16012G22KT 4000 -SHRA BKN008 SCT020TCU BECMG 0102/0103 16018KT 7000 -RA TEMPO 0103/0109 17018G30KT 3000 RA BKN006 BECMG 0109/0111 22010KT 9999 NSW TEMPO 0111/0112 SHRA SCT020CB
Ålesund
I24-800/217
R06-550/225
ENAL 301350Z 13006KT CAVOK 16/03 Q0998 TAF ENAL 301100Z 3012/3021 14008KT CAVOK
Århus
I10R-550/200
I28L-550/200
EKAH 301350Z AUTO 20004KT 150V260 9999 BKN013/// BKN071/// 13/10 Q1006 TAF EKAH 301105Z 3012/0112 19008KT 9999 BKN020 TEMPO 3012/3015 BKN010 SCT020TCU TEMPO 3015/0101 SCT020TCU TEMPO 0101/0106 18015G25KT BECMG 0106/0109 18015G30KT RA BKN012 TEMPO 0109/0112 18012KT 4000 -RA BKN008

EUROPE

AirportMETARTAF
Babimost
I24-550/212
R06-800/212
EPZG 301330Z 19004KT 100V260 9999 SCT040 16/07 Q1012 TAF EPZG 301130Z 3012/3021 12003KT 9999 SCT030 BECMG 3017/3019 4000 BR
Blankensee
I07-550/206
I25-800/237
EDHL 301320Z VRB03KT 9999 FEW036 15/09 Q1009 TAF EDHL 301100Z 3012/3021 19006KT CAVOK
Bydgoszcz
I26-550/212
R08-800/250
EPBY 301330Z 14005KT 120V180 CAVOK 14/06 Q1012 TAF EPBY 301130Z 3012/0112 15007KT CAVOK PROB40 TEMPO 3022/0106 4000 BR PROB30 0100/0106 0600 FG BKN003
Gdansk
I29-550/212
R11-800/250
EPGD 301330Z 20004KT 9999 FEW045 13/06 Q1012 TAF EPGD 301130Z 3012/0112 20004KT 9999 SCT040 TEMPO 3022/0107 3000 BR PROB40 0100/0106 0500 FG BKN002 BECMG 0107/0110 18014KT
Goleniow
I31-550/200
R13-800/250
EPSC 301330Z 20006KT 120V260 CAVOK 16/06 Q1011 TAF EPSC 301130Z 3012/0112 17007KT CAVOK PROB40 0100/0105 4000 BR TEMPO 0108/0112 18015G25KT
Hamburg
I05-550/207
I15-550/200
I23-550/200
R33-550/250
EDDH 301320Z AUTO 22012KT 9999 SCT038 15/08 Q1009 NOSIG TAF EDDH 301100Z 3012/0118 19010KT CAVOK BECMG 0105/0107 18015G25KT RA BKN013 PROB30 TEMPO 0106/0110 4000 RA BKN007 BECMG 0110/0112 NSW BKN020 TEMPO 0112/0118 26015G30KT SHRA BKN013CB BECMG 0113/0115 25010KT PROB30 TEMPO 0113/0117 4000 TSRA
Holtenau
I08-550/246
I26-800/217
EDHK 301320Z 22008KT CAVOK 13/08 Q1008 TAF EDHK 301100Z 3012/3019 20007KT 9999 SCT020
Kaliningrad UMKK 301330Z 29003MPS 9999 FEW030 14/10 Q1013 R24/CLRD95 NOSIG RMK QFE758/1011 TAF UMKK 301054Z 3012/0112 24003G10MPS 6000 SCT016CB TEMPO 3012/3018 VRB01MPS PROB40 TEMPO 3018/0106 0500 PRFG BECMG 3018/3020 17003G10MPS
Kardla
R14-1300/250
R32-750/250
EEKA 301350Z 26007KT 210V320 9999 SCT023 12/07 Q1010 TAF EEKA 301200Z 3013/3019 25010KT 9999 SCT040 PROB30 TEMPO 3013/3015 SHRA FEW025CB SCT030 TEMPO 3017/3019 3000 BR BKN007
Katowice
I27-550/206
R09-800/250
EPKT 301330Z 01004KT 9999 -RA FEW003 BKN006 10/09 Q1012 TAF EPKT 301130Z 3012/0112 02004KT 6000 OVC006 TEMPO 3012/0106 4000 RA BR BKN004 PROB40 TEMPO 3016/3020 2000 DZ BR PROB40 TEMPO 3020/0106 0400 FG BKN001 BECMG 0107/0110 BKN013
Kaunas
I08-600/265
I26-550/250
EYKA 301350Z VRB02KT 9999 FEW030 14/08 Q1014 TAF EYKA 301100Z 3012/0112 VRB05KT 9000 BKN025 TEMPO 3012/3018 SCT030 BECMG 3018/3020 SCT030 TEMPO 3022/0106 3000 BR SCT003 TEMPO 0108/0112 BKN020CB
Krakow
I25-550/214
R07-800/250
EPKK 301330Z VRB02KT 9999 -RA SCT006 BKN015 12/10 Q1012 TAF EPKK 301130Z 3012/0112 05010KT 6000 OVC006 TEMPO 3012/3014 4000 RA BR BKN004 BECMG 3014/3016 24004KT TEMPO 3016/0107 2000 DZ BR BKN003 PROB40 TEMPO 3020/0106 0400 FG BKN001 BECMG 0107/0110 BKN013
Kuressaare
I17-550/200
R35-1300/254
EEKE 301350Z 34007KT 9999 -SHRA SCT025 SCT034CB 13/08 Q1012 TAF EEKE 300300Z 3004/3010 27007KT 9999 BKN025 PROB40 TEMPO 3004/3006 0800 FG BKN003 TEMPO 3007/3010 5000 SHRA SCT020CB
Liepaja
I24-800/238
V06-1500/403
EVLA 301350Z AUTO 25003KT 220V280 CAVOK 14/07 Q1012 TAF EVLA 301104Z 3012/0112 19005KT 9999 SCT030 TEMPO 3012/3018 BKN020CB TEMPO 3018/3024 0600 FG BKN001 SCT015CB TEMPO 0100/0109 3000 -SHRA BKN015CB
Lublin
I25-550/250
R07-1000/250
EPLB 301330Z 05008KT 5000 RA BR OVC011 11/11 Q1012 TAF AMD EPLB 301226Z 3012/0112 07010KT 6000 RA BKN012 BKN020 TEMPO 3013/3019 2000 +RA BR BKN004 OVC008 BECMG 3019/3022 25004KT 2500 BR BKN004 TEMPO 3023/0108 0500 FG BKN001 BECMG 0109/0111 7000 BKN014 BKN025
Modlin
I08-550/200
R26-800/250
EPMO 301330Z 14004KT 090V200 9999 FEW036 13/08 Q1013 TAF EPMO 301130Z 3012/0112 10004KT 9999 SCT025 PROB40 3022/0108 4000 BR PROB30 0102/0107 0500 FG OVC001
Murmansk ULMM 301330Z 12002MPS 9999 SCT016 03/M00 Q1011 R13/090070 NOSIG RMK QFE751 TAF ULMM 301054Z 3012/0112 14003G08MPS 6000 SCT016 BECMG 3021/3023 BKN005 BKN011CB TEMPO 3023/0112 3100 -SHSNRA VV002
Olsztyn
I01-550/200
R19-800/250
EPSY 301330Z 18005KT 100V230 9999 FEW036 13/05 Q1013 TAF EPSY 301130Z 3012/3021 18006KT 9999 SCT030
Palanga
I19-550/230
R01-800/253
EYPA 301350Z 22005KT 180V270 9999 FEW025 SCT030 OVC046 15/08 Q1013 TAF EYPA 301100Z 3012/0112 VRB05KT 9000 BKN030 TEMPO 3012/3018 SCT010 BKN020CB BECMG 3018/3020 NSC TEMPO 3020/0103 5000 MIFG BR SCT003 TEMPO 0103/0112 SHRA SCT010 BKN020CB
Poznan
I28-550/220
R10-750/209
EPPO 301330Z 16007KT 9999 FEW034 BKN041 15/06 Q1012 TAF EPPO 301130Z 3012/0112 18006KT 9999 SCT035 BECMG 3021/3024 4000 BR PROB40 TEMPO 0100/0108 2500 BR BKN004 BECMG 0108/0110 CAVOK
Prag
I06/I13/I24/I31
LKPR 301330Z 21005KT 150V250 9999 FEW037 16/06 Q1012 NOSIG TAF LKPR 301100Z 3012/0118 VRB02KT 9999 SCT027 BECMG 3014/3016 13005KT BECMG 3020/3022 20006KT BECMG 0100/0102 5000 BR NSC PROB40 TEMPO 0103/0107 0800 FG BKN002 BECMG 0107/0109 21010KT CAVOK TEMPO 0109/0118 24016G30KT 7000 SHRA BKN025
Pskov
R01-900/296
R19-750/312
ULOO 301330Z 24003MPS 9999 SCT039CB 13/06 Q1011 R19/090060 NOSIG RMK QFE754 TAF ULOO 301053Z 3012/3021 23003MPS 6000 BKN016
Radom
N25-1500/418
P07-800/260
EPRA 301330Z 06007KT 4500 -RA BR BKN007 OVC012 10/10 Q1013 TAF EPRA 301130Z 3012/3021 06008KT 6000 -RA SCT008 BKN027 TEMPO 3012/3018 3000 RA BR BKN005 OVC014
Riga
I18-550/200
I36-550/200
EVRA 301350Z 24004KT 200V290 9999 FEW040 14/05 Q1012 NOSIG TAF EVRA 301100Z 3012/0112 19005KT 9999 SCT030 TEMPO 3012/3018 SCT020CB TEMPO 3018/0103 3000 BR BKN005 PROB40 TEMPO 3018/0103 0700 FG TEMPO 0103/0109 3000 -SHRA BKN008 BKN020CB TEMPO 0109/0112 SCT020CB
Rzeszow
I27-550/200
R09-550/250
EPRZ 301330Z 10006KT 5000 -RA BR BKN003 14/13 Q1010 TAF EPRZ 301130Z 3012/0112 09010KT 6000 BKN006 TEMPO 3012/3018 3000 RA BR BKN003 PROB30 TEMPO 3012/3016 2500 SHRA BKN013CB BECMG 3013/3016 26010KT BECMG 3022/0101 VRB02KT TEMPO 3022/0106 0400 FG BKN002 BECMG 0106/0109 BKN013
Siauliai
I14L-550/210
I32R-550/210
V14R-1600/389
V32L-1600/534
EYSA 301350Z 24002KT 9999 FEW041 BKN058 14/06 Q1013 NOSIG TAF EYSA 301100Z 3012/3021 VRB05KT 9000 SCT030 TEMPO 3012/3018 BKN020CB
St Petersburg
I10
I28
ULLI 301330Z 22004MPS 9999 -SHRA SCT016CB OVC040 09/07 Q1010 R28R/290050 NOSIG TAF ULLI 301100Z 3012/0112 18003MPS 9999 FEW013 BKN020 TEMPO 3012/3016 22003G08MPS 5000 -SHRA BR BKN010 BKN016CB BECMG 3016/3018 4000 MIFG BR TEMPO 3018/0106 0400 FG VV002 BECMG 0106/0108 9999 NSW
Tallin
I08-550/200
I26-550/200
EETN 301350Z 26009KT 9999 FEW020CB SCT041 11/06 Q1010 NOSIG TAF EETN 301130Z 3012/0112 26012KT 9999 SCT016CB BKN035 PROB40 TEMPO 3012/3017 4000 SHRA BECMG 3020/3022 20006KT SCT030
Tartu/Ulenurme
I26-550/236
R08-800/250
EETU 301350Z 24008KT 9999 FEW036CB SCT048 11/06 Q1011
UMMG UMMG 301300Z 22002MPS 9999 SCT033 BKN100 13/06 Q1014 NOSIG TAF UMMG 301103Z 3012/3021 19003MPS 9000 BKN020 TEMPO 3012/3021 VRB02MPS
Ventspils
03
21
EVVA 301350Z AUTO 24005KT 210V280 CAVOK 13/07 Q1012 TAF EVVA 301106Z 3012/3021 28005KT 9999 SCT030 TEMPO 3012/3018 SCT015CB TEMPO 3018/3021 3000 BR
Vilnius
I01-550/223
I19-600/266
EYVI 301350Z 21003KT 9999 SCT020 12/07 Q1014 NOSIG TAF EYVI 301100Z 3012/0112 VRB05KT 8000 SCT025 TEMPO 3012/3018 BKN020 TEMPO 3018/3024 3000 BR SCT005 BECMG 0100/0102 5000 BR BKN005 OVC010 TEMPO 0102/0107 1500 OVC003 TEMPO 0107/0112 3000 RA OVC003
Warszawa
I11-550/211
I33-550/200
R15-800/250
R29-800/250
EPWA 301330Z 10006KT 070V130 9999 FEW026 13/07 Q1013 NOSIG TAF EPWA 301130Z 3012/0112 10004KT 9999 SCT030 PROB30 TEMPO 3012/3020 -RA BKN014 BKN020 TEMPO 3022/0109 4000 BR BKN008 PROB40 TEMPO 0100/0107 2000 -RA BR BKN004
Wroclaw
I29-550/200
R11-800/250
EPWR 301330Z VRB02KT 9999 FEW025 15/08 Q1013 TAF EPWR 301130Z 3012/0112 13003KT CAVOK BECMG 3021/3024 3000 BR TEMPO 0100/0108 0800 FG BKN003 BECMG 0108/0110 19010KT CAVOK

OTHER

AirportMETARTAF
Rostock
I09-800/200
I27-800/200
ETNL 301320Z 21008KT 9999 SCT035 SCT050 16/07 Q1010 BLU+ TAF ETNL 301001Z 3011/3023 20008KT 9999 NSW FEW030 BY ETGL